DR5002 EDDH-LEPA
Flight info
| Callsign | DR5002 |
|---|---|
| Flight time | N/A |
| Altitude | 23000 |
| Route | IDEKO7G IDEKO N850 PIROT/N0480F410 N850 XAROL/N0484F430 DCT BOMBI DCT GIGET DCT ABUKA DCT KRH DCT NATOR/N0480F410 DCT LUTIX DCT BENOT DCT NEMOS DCT GEVEA DCT INCUS DCT BALSI DCT RETNO DCT TUPOX DCT MTG DCT DIVKO DCT VATIR N852 VERSO L129 LUNIK |
| Aircraft | B788/H-SDE1E2E3FGHIJ2J3J4J5M1RWXY/LB1D1 |
Departure
| Time | N/A |
|---|---|
| Airport | Hamburg Helmut Schmidt Airport (EDDH) |
Arrival
| Time | 2026-05-01 09:06 |
|---|---|
| Airport | Palma de Mallorca Airport (LEPA) |
| Time | Latitude | Longitude | Altitude | Speed | Heading |
|---|---|---|---|---|---|
| 2026-05-01 07:23 | 50.71071 | 8.92633 | 32959 ft | 471 kts | 187° |
| 2026-05-01 07:24 | 50.61364 | 8.90739 | 32954 ft | 471 kts | 187° |
| 2026-05-01 07:24 | 50.54866 | 8.89477 | 32953 ft | 471 kts | 187° |
| 2026-05-01 07:25 | 50.48367 | 8.88217 | 32952 ft | 470 kts | 187° |
| 2026-05-01 07:25 | 50.41869 | 8.86961 | 32951 ft | 470 kts | 187° |
| 2026-05-01 07:26 | 50.35371 | 8.85709 | 32948 ft | 471 kts | 187° |
| 2026-05-01 07:26 | 50.28916 | 8.84468 | 32945 ft | 471 kts | 187° |
| 2026-05-01 07:27 | 50.22368 | 8.83213 | 32944 ft | 471 kts | 186° |
| 2026-05-01 07:27 | 50.15930 | 8.81983 | 32946 ft | 471 kts | 186° |
| 2026-05-01 07:28 | 50.09427 | 8.80743 | 32948 ft | 471 kts | 186° |
| 2026-05-01 07:28 | 50.02929 | 8.79491 | 32948 ft | 470 kts | 187° |
| 2026-05-01 07:29 | 49.96439 | 8.78090 | 32948 ft | 470 kts | 187° |
| 2026-05-01 07:29 | 49.89952 | 8.76769 | 32943 ft | 470 kts | 187° |
| 2026-05-01 07:30 | 49.83513 | 8.75424 | 32940 ft | 470 kts | 187° |
| 2026-05-01 07:30 | 49.77029 | 8.74092 | 32931 ft | 470 kts | 187° |
| 2026-05-01 07:31 | 49.70549 | 8.72756 | 32921 ft | 470 kts | 187° |
| 2026-05-01 07:32 | 49.54395 | 8.69494 | 32922 ft | 470 kts | 187° |
| 2026-05-01 07:33 | 49.44676 | 8.67546 | 32923 ft | 470 kts | 187° |
| 2026-05-01 07:33 | 49.34956 | 8.65572 | 32919 ft | 470 kts | 187° |
| 2026-05-01 07:34 | 49.25276 | 8.63622 | 32907 ft | 470 kts | 187° |
| 2026-05-01 07:35 | 49.18787 | 8.62319 | 32897 ft | 470 kts | 187° |
| 2026-05-01 07:35 | 49.12300 | 8.61020 | 32877 ft | 470 kts | 187° |
| 2026-05-01 07:36 | 49.05820 | 8.59724 | 32870 ft | 470 kts | 187° |
| 2026-05-01 07:36 | 48.99337 | 8.58415 | 32869 ft | 470 kts | 189° |
| 2026-05-01 07:37 | 48.89753 | 8.55324 | 32860 ft | 471 kts | 191° |
| 2026-05-01 07:37 | 48.83367 | 8.53269 | 32860 ft | 471 kts | 191° |
| 2026-05-01 07:38 | 48.76952 | 8.51195 | 32867 ft | 471 kts | 191° |
| 2026-05-01 07:39 | 48.67330 | 8.48106 | 32863 ft | 471 kts | 191° |
| 2026-05-01 07:39 | 48.57691 | 8.45020 | 32856 ft | 471 kts | 191° |
| 2026-05-01 07:40 | 48.51352 | 8.42998 | 32855 ft | 471 kts | 191° |
| 2026-05-01 07:40 | 48.44939 | 8.40957 | 32859 ft | 471 kts | 191° |
| 2026-05-01 07:41 | 48.38526 | 8.38921 | 32863 ft | 471 kts | 191° |
| 2026-05-01 07:42 | 48.28905 | 8.35877 | 32858 ft | 471 kts | 191° |
| 2026-05-01 07:42 | 48.22531 | 8.33867 | 32863 ft | 471 kts | 191° |
| 2026-05-01 07:43 | 48.16243 | 8.31193 | 32884 ft | 472 kts | 207° |
| 2026-05-01 07:43 | 48.07900 | 8.23326 | 32864 ft | 473 kts | 212° |
| 2026-05-01 07:44 | 47.96886 | 8.12742 | 32861 ft | 472 kts | 212° |
| 2026-05-01 07:45 | 47.91360 | 8.07451 | 32859 ft | 472 kts | 212° |
| 2026-05-01 07:45 | 47.85841 | 8.02178 | 32863 ft | 471 kts | 212° |
| 2026-05-01 07:46 | 47.80323 | 7.96919 | 32863 ft | 471 kts | 212° |
| 2026-05-01 07:47 | 47.72087 | 7.89094 | 32866 ft | 470 kts | 212° |
| 2026-05-01 07:47 | 47.66571 | 7.83872 | 32868 ft | 470 kts | 212° |
| 2026-05-01 07:48 | 47.58296 | 7.76061 | 32868 ft | 470 kts | 212° |
| 2026-05-01 07:48 | 47.52821 | 7.70908 | 32869 ft | 469 kts | 212° |
| 2026-05-01 07:49 | 47.44560 | 7.63160 | 32867 ft | 469 kts | 211° |
| 2026-05-01 07:50 | 47.39056 | 7.58013 | 32870 ft | 468 kts | 211° |
| 2026-05-01 07:50 | 47.30841 | 7.50356 | 32867 ft | 467 kts | 211° |
| 2026-05-01 07:51 | 47.25345 | 7.45249 | 32866 ft | 467 kts | 211° |
| 2026-05-01 07:52 | 47.17162 | 7.37471 | 32888 ft | 467 kts | 220° |
| 2026-05-01 07:52 | 47.14880 | 7.34076 | 32891 ft | 468 kts | 231° |
| 2026-05-01 07:52 | 47.12846 | 7.30339 | 32875 ft | 469 kts | 231° |
| 2026-05-01 07:53 | 47.06794 | 7.19162 | 32872 ft | 468 kts | 231° |
| 2026-05-01 07:53 | 47.02733 | 7.11715 | 32856 ft | 467 kts | 231° |
| 2026-05-01 07:55 | 46.92600 | 6.93211 | 32896 ft | 465 kts | 230° |
| 2026-05-01 07:55 | 46.87983 | 6.86788 | 32899 ft | 462 kts | 218° |
| 2026-05-01 07:56 | 46.80502 | 6.77907 | 32897 ft | 462 kts | 218° |
| 2026-05-01 07:57 | 46.73031 | 6.69037 | 32884 ft | 462 kts | 218° |
| 2026-05-01 07:58 | 46.63091 | 6.57281 | 32878 ft | 461 kts | 217° |
| 2026-05-01 07:59 | 46.53127 | 6.45557 | 32869 ft | 460 kts | 217° |
| 2026-05-01 08:00 | 46.38228 | 6.28134 | 32868 ft | 458 kts | 217° |
| 2026-05-01 08:01 | 46.28320 | 6.16628 | 32866 ft | 455 kts | 214° |
| 2026-05-01 08:01 | 46.25641 | 6.14250 | 32884 ft | 452 kts | 202° |
| 2026-05-01 08:02 | 46.19663 | 6.11940 | 32874 ft | 449 kts | 187° |
| 2026-05-01 08:03 | 46.10402 | 6.09892 | 32875 ft | 448 kts | 187° |
| 2026-05-01 08:03 | 46.01150 | 6.07836 | 32850 ft | 448 kts | 187° |
| 2026-05-01 08:04 | 45.88862 | 6.05124 | 32846 ft | 448 kts | 187° |
| 2026-05-01 08:05 | 45.79626 | 6.03085 | 32847 ft | 448 kts | 187° |
| 2026-05-01 08:06 | 45.70436 | 6.01057 | 32848 ft | 447 kts | 187° |
| 2026-05-01 08:07 | 45.58135 | 5.98353 | 32841 ft | 447 kts | 187° |
| 2026-05-01 08:08 | 45.48920 | 5.96336 | 32844 ft | 446 kts | 187° |
| 2026-05-01 08:09 | 45.36783 | 5.92659 | 32844 ft | 449 kts | 192° |
| 2026-05-01 08:09 | 45.30685 | 5.90748 | 32841 ft | 449 kts | 192° |
| 2026-05-01 08:10 | 45.18481 | 5.86958 | 32841 ft | 449 kts | 192° |
| 2026-05-01 08:11 | 45.06278 | 5.83184 | 32843 ft | 452 kts | 193° |
| 2026-05-01 08:12 | 44.97065 | 5.80345 | 32836 ft | 452 kts | 193° |
| 2026-05-01 08:13 | 44.87825 | 5.77506 | 32842 ft | 453 kts | 193° |
| 2026-05-01 08:13 | 44.78614 | 5.74686 | 32835 ft | 454 kts | 194° |
| 2026-05-01 08:14 | 44.72435 | 5.72800 | 32837 ft | 454 kts | 194° |
| 2026-05-01 08:14 | 44.66249 | 5.70915 | 32840 ft | 455 kts | 194° |
| 2026-05-01 08:15 | 44.57003 | 5.68106 | 32841 ft | 455 kts | 194° |
| 2026-05-01 08:16 | 44.50807 | 5.66229 | 32837 ft | 456 kts | 194° |
| 2026-05-01 08:16 | 44.44612 | 5.64356 | 32839 ft | 455 kts | 194° |
| 2026-05-01 08:17 | 44.38419 | 5.62457 | 32842 ft | 454 kts | 198° |
| 2026-05-01 08:17 | 44.32563 | 5.59379 | 32857 ft | 453 kts | 204° |
| 2026-05-01 08:18 | 44.26691 | 5.56155 | 32858 ft | 453 kts | 204° |
| 2026-05-01 08:19 | 44.14931 | 5.49731 | 32856 ft | 454 kts | 204° |
| 2026-05-01 08:19 | 44.09082 | 5.46549 | 32853 ft | 454 kts | 204° |
| 2026-05-01 08:20 | 44.03199 | 5.43351 | 32851 ft | 454 kts | 204° |
| 2026-05-01 08:20 | 43.97307 | 5.40157 | 32850 ft | 455 kts | 204° |
| 2026-05-01 08:21 | 43.91412 | 5.36964 | 32842 ft | 455 kts | 204° |
| 2026-05-01 08:21 | 43.85513 | 5.33777 | 32839 ft | 455 kts | 204° |
| 2026-05-01 08:22 | 43.79655 | 5.30618 | 32834 ft | 455 kts | 204° |
| 2026-05-01 08:22 | 43.73758 | 5.27446 | 32826 ft | 455 kts | 204° |
| 2026-05-01 08:23 | 43.67856 | 5.24277 | 32830 ft | 455 kts | 204° |
| 2026-05-01 08:23 | 43.61960 | 5.21118 | 32833 ft | 455 kts | 204° |
| 2026-05-01 08:24 | 43.56101 | 5.17985 | 32828 ft | 455 kts | 204° |
| 2026-05-01 08:24 | 43.50205 | 5.14840 | 32802 ft | 454 kts | 204° |
| 2026-05-01 08:25 | 43.44305 | 5.11699 | 32805 ft | 455 kts | 204° |
| 2026-05-01 08:25 | 43.38473 | 5.08399 | 32830 ft | 450 kts | 213° |
| 2026-05-01 08:26 | 43.33310 | 5.03669 | 32822 ft | 450 kts | 217° |
| 2026-05-01 08:26 | 43.28155 | 4.98801 | 32826 ft | 450 kts | 217° |
| 2026-05-01 08:27 | 43.22994 | 4.93956 | 32829 ft | 449 kts | 217° |
| 2026-05-01 08:27 | 43.17839 | 4.89117 | 32828 ft | 449 kts | 217° |
| 2026-05-01 08:28 | 43.12677 | 4.84286 | 32828 ft | 449 kts | 217° |
| 2026-05-01 08:28 | 43.07557 | 4.79503 | 32827 ft | 448 kts | 217° |
| 2026-05-01 08:29 | 43.02217 | 4.75102 | 32828 ft | 449 kts | 211° |
| 2026-05-01 08:29 | 42.96759 | 4.70971 | 32826 ft | 448 kts | 212° |
| 2026-05-01 08:30 | 42.91313 | 4.66841 | 32825 ft | 448 kts | 212° |
| 2026-05-01 08:30 | 42.85895 | 4.62750 | 32821 ft | 448 kts | 212° |
| 2026-05-01 08:31 | 42.80494 | 4.58676 | 32815 ft | 439 kts | 212° |
| 2026-05-01 08:31 | 42.75195 | 4.54687 | 32797 ft | 431 kts | 212° |
| 2026-05-01 08:32 | 42.69990 | 4.50777 | 32767 ft | 424 kts | 212° |
| 2026-05-01 08:32 | 42.67405 | 4.48837 | 32625 ft | 424 kts | 212° |
| 2026-05-01 08:32 | 42.64854 | 4.46925 | 32475 ft | 425 kts | 212° |
| 2026-05-01 08:32 | 42.62268 | 4.44989 | 32326 ft | 425 kts | 212° |
| 2026-05-01 08:33 | 42.59677 | 4.43051 | 32164 ft | 425 kts | 212° |
| 2026-05-01 08:33 | 42.57086 | 4.41115 | 32004 ft | 426 kts | 212° |
| 2026-05-01 08:33 | 42.54492 | 4.39178 | 31859 ft | 426 kts | 212° |
| 2026-05-01 08:33 | 42.51898 | 4.37243 | 31704 ft | 426 kts | 212° |
| 2026-05-01 08:34 | 42.49302 | 4.35309 | 31550 ft | 426 kts | 212° |
| 2026-05-01 08:34 | 42.46700 | 4.33372 | 31376 ft | 427 kts | 212° |
| 2026-05-01 08:34 | 42.44131 | 4.31462 | 31251 ft | 427 kts | 212° |
| 2026-05-01 08:34 | 42.41528 | 4.29527 | 31091 ft | 427 kts | 212° |
| 2026-05-01 08:35 | 42.38925 | 4.27596 | 31025 ft | 425 kts | 212° |
| 2026-05-01 08:35 | 42.36375 | 4.25708 | 31003 ft | 408 kts | 212° |
| 2026-05-01 08:35 | 42.33939 | 4.23908 | 30694 ft | 395 kts | 212° |
| 2026-05-01 08:35 | 42.31526 | 4.22115 | 29871 ft | 396 kts | 212° |
| 2026-05-01 08:36 | 42.29104 | 4.20317 | 28951 ft | 398 kts | 212° |
| 2026-05-01 08:36 | 42.26668 | 4.18519 | 28007 ft | 401 kts | 212° |
| 2026-05-01 08:36 | 42.24210 | 4.16707 | 27021 ft | 404 kts | 211° |
| 2026-05-01 08:36 | 42.21775 | 4.14910 | 26061 ft | 406 kts | 211° |
| 2026-05-01 08:37 | 42.19282 | 4.13071 | 25045 ft | 410 kts | 211° |
| 2026-05-01 08:37 | 42.16766 | 4.11216 | 23997 ft | 415 kts | 210° |
| 2026-05-01 08:37 | 42.14218 | 4.09346 | 22785 ft | 419 kts | 210° |
| 2026-05-01 08:37 | 42.11655 | 4.07467 | 21615 ft | 420 kts | 210° |
| 2026-05-01 08:38 | 42.09085 | 4.05582 | 20465 ft | 420 kts | 209° |
| 2026-05-01 08:38 | 42.06537 | 4.03712 | 19880 ft | 419 kts | 209° |
| 2026-05-01 08:38 | 42.03956 | 4.01822 | 19807 ft | 422 kts | 209° |
| 2026-05-01 08:38 | 42.01404 | 3.99956 | 19806 ft | 424 kts | 209° |
| 2026-05-01 08:39 | 41.98806 | 3.98058 | 19806 ft | 426 kts | 209° |
| 2026-05-01 08:39 | 41.96208 | 3.96160 | 19806 ft | 426 kts | 209° |
| 2026-05-01 08:39 | 41.93598 | 3.94278 | 19800 ft | 426 kts | 206° |
| 2026-05-01 08:39 | 41.90792 | 3.92994 | 19802 ft | 428 kts | 192° |
| 2026-05-01 08:40 | 41.84918 | 3.91645 | 19797 ft | 428 kts | 190° |
| 2026-05-01 08:40 | 41.81982 | 3.90975 | 19796 ft | 428 kts | 191° |
| 2026-05-01 08:40 | 41.79045 | 3.90285 | 19793 ft | 429 kts | 191° |
| 2026-05-01 08:41 | 41.76107 | 3.89599 | 19795 ft | 428 kts | 191° |
| 2026-05-01 08:41 | 41.73212 | 3.88935 | 19789 ft | 428 kts | 190° |
| 2026-05-01 08:41 | 41.70274 | 3.88262 | 19790 ft | 428 kts | 191° |
| 2026-05-01 08:41 | 41.67337 | 3.87584 | 19791 ft | 428 kts | 191° |
| 2026-05-01 08:42 | 41.64401 | 3.86905 | 19789 ft | 428 kts | 191° |
| 2026-05-01 08:42 | 41.61464 | 3.86231 | 19789 ft | 429 kts | 191° |
| 2026-05-01 08:42 | 41.58523 | 3.85556 | 19791 ft | 429 kts | 191° |
| 2026-05-01 08:42 | 41.55585 | 3.84882 | 19784 ft | 428 kts | 191° |
| 2026-05-01 08:43 | 41.52649 | 3.84208 | 19783 ft | 428 kts | 191° |
| 2026-05-01 08:43 | 41.49711 | 3.83534 | 19780 ft | 428 kts | 191° |
| 2026-05-01 08:43 | 41.46813 | 3.82871 | 19778 ft | 428 kts | 191° |
| 2026-05-01 08:43 | 41.43876 | 3.82200 | 19781 ft | 428 kts | 191° |
| 2026-05-01 08:44 | 41.40938 | 3.81528 | 19781 ft | 428 kts | 191° |
| 2026-05-01 08:44 | 41.38064 | 3.80871 | 19781 ft | 428 kts | 191° |
| 2026-05-01 08:44 | 41.35124 | 3.80201 | 19777 ft | 428 kts | 191° |
| 2026-05-01 08:44 | 41.32187 | 3.79532 | 19776 ft | 429 kts | 191° |
| 2026-05-01 08:45 | 41.29246 | 3.78863 | 19770 ft | 428 kts | 191° |
| 2026-05-01 08:45 | 41.26309 | 3.78194 | 19773 ft | 428 kts | 191° |
| 2026-05-01 08:45 | 41.23410 | 3.77534 | 19772 ft | 429 kts | 191° |
| 2026-05-01 08:45 | 41.20471 | 3.76868 | 19771 ft | 428 kts | 191° |
| 2026-05-01 08:46 | 41.17535 | 3.76202 | 19768 ft | 428 kts | 191° |
| 2026-05-01 08:46 | 41.14635 | 3.75351 | 19776 ft | 427 kts | 200° |
| 2026-05-01 08:46 | 41.11866 | 3.73934 | 19771 ft | 427 kts | 202° |
| 2026-05-01 08:46 | 41.09101 | 3.72492 | 19769 ft | 427 kts | 202° |
| 2026-05-01 08:47 | 41.06339 | 3.71064 | 19600 ft | 419 kts | 202° |
| 2026-05-01 08:47 | 41.03603 | 3.69660 | 18489 ft | 422 kts | 202° |
| 2026-05-01 08:47 | 41.00890 | 3.68269 | 17592 ft | 414 kts | 202° |
| 2026-05-01 08:47 | 40.98224 | 3.66896 | 16693 ft | 409 kts | 202° |
| 2026-05-01 08:48 | 40.95626 | 3.65557 | 15830 ft | 404 kts | 201° |
| 2026-05-01 08:48 | 40.93024 | 3.64221 | 15023 ft | 399 kts | 201° |
| 2026-05-01 08:48 | 40.90450 | 3.62903 | 14230 ft | 394 kts | 201° |
| 2026-05-01 08:48 | 40.87911 | 3.61602 | 13410 ft | 389 kts | 201° |
| 2026-05-01 08:49 | 40.85408 | 3.60319 | 12628 ft | 383 kts | 201° |
| 2026-05-01 08:49 | 40.82940 | 3.59055 | 11886 ft | 378 kts | 200° |
| 2026-05-01 08:49 | 40.80505 | 3.57811 | 11161 ft | 373 kts | 200° |
| 2026-05-01 08:49 | 40.78105 | 3.56584 | 10479 ft | 367 kts | 200° |
| 2026-05-01 08:50 | 40.75738 | 3.55376 | 9852 ft | 361 kts | 200° |
| 2026-05-01 08:50 | 40.73402 | 3.54187 | 9763 ft | 368 kts | 200° |
| 2026-05-01 08:50 | 40.70994 | 3.52959 | 9762 ft | 364 kts | 200° |
| 2026-05-01 08:50 | 40.68666 | 3.51772 | 9763 ft | 364 kts | 199° |
| 2026-05-01 08:51 | 40.66304 | 3.50569 | 9762 ft | 364 kts | 200° |
| 2026-05-01 08:51 | 40.63945 | 3.49371 | 9752 ft | 363 kts | 199° |
| 2026-05-01 08:51 | 40.61587 | 3.48173 | 9753 ft | 363 kts | 199° |
| 2026-05-01 08:51 | 40.59230 | 3.46976 | 9756 ft | 363 kts | 200° |
| 2026-05-01 08:52 | 40.56870 | 3.45777 | 9759 ft | 363 kts | 200° |
| 2026-05-01 08:52 | 40.54513 | 3.44582 | 9755 ft | 363 kts | 200° |
| 2026-05-01 08:52 | 40.52158 | 3.43390 | 9759 ft | 363 kts | 200° |
| 2026-05-01 08:52 | 40.49834 | 3.42214 | 9756 ft | 363 kts | 200° |
| 2026-05-01 08:53 | 40.47477 | 3.41022 | 9755 ft | 363 kts | 200° |
| 2026-05-01 08:53 | 40.45123 | 3.39830 | 9752 ft | 363 kts | 200° |
| 2026-05-01 08:53 | 40.42768 | 3.38641 | 9752 ft | 363 kts | 200° |
| 2026-05-01 08:53 | 40.40414 | 3.37455 | 9754 ft | 362 kts | 200° |
| 2026-05-01 08:54 | 40.38062 | 3.36273 | 9751 ft | 362 kts | 200° |
| 2026-05-01 08:54 | 40.35706 | 3.35093 | 9748 ft | 362 kts | 200° |
| 2026-05-01 08:54 | 40.33352 | 3.33918 | 9752 ft | 362 kts | 200° |
| 2026-05-01 08:54 | 40.31030 | 3.32760 | 9751 ft | 362 kts | 200° |
| 2026-05-01 08:55 | 40.28679 | 3.31592 | 9750 ft | 362 kts | 200° |
| 2026-05-01 08:55 | 40.26324 | 3.30422 | 9747 ft | 362 kts | 200° |
| 2026-05-01 08:55 | 40.23972 | 3.29258 | 9747 ft | 362 kts | 200° |
| 2026-05-01 08:55 | 40.21618 | 3.28095 | 9743 ft | 361 kts | 200° |
| 2026-05-01 08:56 | 40.19266 | 3.26935 | 9740 ft | 361 kts | 200° |
| 2026-05-01 08:56 | 40.16913 | 3.25777 | 9741 ft | 361 kts | 200° |
| 2026-05-01 08:56 | 40.14558 | 3.24620 | 9747 ft | 361 kts | 200° |
| 2026-05-01 08:56 | 40.12207 | 3.23468 | 9747 ft | 361 kts | 200° |
| 2026-05-01 08:57 | 40.09857 | 3.22319 | 9747 ft | 361 kts | 200° |
| 2026-05-01 08:57 | 40.07536 | 3.21186 | 9747 ft | 361 kts | 200° |
| 2026-05-01 08:57 | 40.05211 | 3.20052 | 9139 ft | 353 kts | 199° |
| 2026-05-01 08:57 | 40.02889 | 3.18919 | 7965 ft | 357 kts | 199° |
| 2026-05-01 08:58 | 40.00570 | 3.17789 | 6983 ft | 355 kts | 199° |
| 2026-05-01 08:58 | 39.98265 | 3.16668 | 6039 ft | 352 kts | 198° |
| 2026-05-01 08:58 | 39.96020 | 3.15440 | 5101 ft | 350 kts | 206° |
| 2026-05-01 08:58 | 39.93889 | 3.13922 | 4230 ft | 347 kts | 206° |
| 2026-05-01 08:59 | 39.91770 | 3.12492 | 3469 ft | 341 kts | 205° |
| 2026-05-01 08:59 | 39.89667 | 3.11100 | 2803 ft | 334 kts | 205° |
| 2026-05-01 08:59 | 39.87694 | 3.09803 | 2722 ft | 298 kts | 205° |
| 2026-05-01 08:59 | 39.85964 | 3.08664 | 2718 ft | 260 kts | 205° |
| 2026-05-01 09:00 | 39.84451 | 3.07656 | 2719 ft | 241 kts | 205° |
| 2026-05-01 09:00 | 39.82991 | 3.06679 | 2717 ft | 233 kts | 205° |
| 2026-05-01 09:00 | 39.81561 | 3.05723 | 2473 ft | 229 kts | 205° |
| 2026-05-01 09:00 | 39.80147 | 3.04773 | 2119 ft | 224 kts | 205° |
| 2026-05-01 09:01 | 39.78746 | 3.03840 | 2118 ft | 229 kts | 205° |
| 2026-05-01 09:01 | 39.77324 | 3.02892 | 2106 ft | 230 kts | 205° |
| 2026-05-01 09:01 | 39.75897 | 3.01932 | 2116 ft | 232 kts | 205° |
| 2026-05-01 09:01 | 39.74462 | 3.00957 | 2113 ft | 234 kts | 206° |
| 2026-05-01 09:02 | 39.73048 | 2.99864 | 2114 ft | 237 kts | 210° |
| 2026-05-01 09:02 | 39.71732 | 2.98655 | 2113 ft | 235 kts | 216° |
| 2026-05-01 09:02 | 39.70456 | 2.97338 | 2107 ft | 234 kts | 216° |
| 2026-05-01 09:02 | 39.69220 | 2.95943 | 2113 ft | 235 kts | 221° |
| 2026-05-01 09:03 | 39.68030 | 2.94490 | 2102 ft | 236 kts | 222° |
| 2026-05-01 09:03 | 39.66836 | 2.93023 | 2102 ft | 236 kts | 222° |
| 2026-05-01 09:03 | 39.65645 | 2.91564 | 2087 ft | 234 kts | 222° |
| 2026-05-01 09:03 | 39.64460 | 2.90113 | 1985 ft | 232 kts | 222° |
| 2026-05-01 09:04 | 39.63686 | 2.89165 | 1822 ft | 229 kts | 222° |
| 2026-05-01 09:04 | 39.62544 | 2.87720 | 1630 ft | 226 kts | 226° |
| 2026-05-01 09:04 | 39.61386 | 2.85383 | 1656 ft | 234 kts | 238° |
| 2026-05-01 09:04 | 39.60525 | 2.83645 | 1734 ft | 231 kts | 237° |
| 2026-05-01 09:05 | 39.59716 | 2.81796 | 1541 ft | 238 kts | 243° |
| 2026-05-01 09:05 | 39.58914 | 2.79948 | 1409 ft | 232 kts | 236° |
| 2026-05-01 09:05 | 39.58058 | 2.78191 | 1130 ft | 227 kts | 239° |
| 2026-05-01 09:05 | 39.57240 | 2.76432 | 669 ft | 228 kts | 240° |
| 2026-05-01 09:06 | 39.56726 | 2.75258 | 390 ft | 220 kts | 240° |
| 2026-05-01 09:06 | 39.55763 | 2.73167 | 30 ft | 170 kts | 232° |
| 2026-05-01 09:06 | 39.55277 | 2.72259 | 27 ft | 86 kts | 241° |
| 2026-05-01 09:06 | 39.55068 | 2.71819 | 31 ft | 38 kts | 237° |
| 2026-05-01 09:07 | 39.54924 | 2.71527 | 29 ft | 38 kts | 242° |
| 2026-05-01 09:07 | 39.54797 | 2.71245 | 29 ft | 34 kts | 236° |
| 2026-05-01 09:07 | 39.54723 | 2.71124 | 30 ft | 23 kts | 210° |
| 2026-05-01 09:07 | 39.54632 | 2.71082 | 30 ft | 7 kts | 194° |
| 2026-05-01 09:08 | 39.54591 | 2.71072 | 30 ft | 3 kts | 172° |
| 2026-05-01 09:08 | 39.54588 | 2.71073 | 30 ft | 0 kts | 165° |
| 2026-05-01 09:08 | 39.54584 | 2.71075 | 30 ft | 1 kts | 148° |
| 2026-05-01 09:08 | 39.54565 | 2.71107 | 30 ft | 9 kts | 118° |
| 2026-05-01 09:09 | 39.54557 | 2.71168 | 30 ft | 11 kts | 79° |
| 2026-05-01 09:09 | 39.54607 | 2.71296 | 30 ft | 22 kts | 57° |
| 2026-05-01 09:09 | 39.54732 | 2.71554 | 29 ft | 26 kts | 58° |
| 2026-05-01 09:09 | 39.54796 | 2.71689 | 29 ft | 27 kts | 59° |
| 2026-05-01 09:10 | 39.54895 | 2.71898 | 29 ft | 28 kts | 58° |
| 2026-05-01 09:10 | 39.54996 | 2.72112 | 28 ft | 28 kts | 58° |
| 2026-05-01 09:10 | 39.55098 | 2.72327 | 28 ft | 28 kts | 59° |
| 2026-05-01 09:10 | 39.55198 | 2.72540 | 27 ft | 27 kts | 58° |
| 2026-05-01 09:11 | 39.55298 | 2.72747 | 26 ft | 27 kts | 59° |
| 2026-05-01 09:11 | 39.55394 | 2.72953 | 30 ft | 27 kts | 58° |
| 2026-05-01 09:11 | 39.55486 | 2.73149 | 30 ft | 24 kts | 59° |
| 2026-05-01 09:11 | 39.55562 | 2.73313 | 27 ft | 15 kts | 59° |
| 2026-05-01 09:12 | 39.55611 | 2.73418 | 30 ft | 11 kts | 60° |
| 2026-05-01 09:12 | 39.55623 | 2.73482 | 25 ft | 4 kts | 99° |
| 2026-05-01 09:12 | 39.55616 | 2.73498 | 27 ft | 2 kts | 130° |
| 2026-05-01 09:12 | 39.55594 | 2.73522 | 29 ft | 5 kts | 148° |
| 2026-05-01 09:13 | 39.55547 | 2.73559 | 30 ft | 10 kts | 149° |
| 2026-05-01 09:13 | 39.55473 | 2.73616 | 32 ft | 14 kts | 149° |
| 2026-05-01 09:13 | 39.55382 | 2.73689 | 27 ft | 16 kts | 148° |
| 2026-05-01 09:13 | 39.55283 | 2.73770 | 29 ft | 13 kts | 148° |
| 2026-05-01 09:14 | 39.55211 | 2.73816 | 30 ft | 6 kts | 175° |
| 2026-05-01 09:14 | 39.55189 | 2.73809 | 30 ft | 4 kts | 201° |
| 2026-05-01 09:14 | 39.55161 | 2.73791 | 31 ft | 7 kts | 207° |
| 2026-05-01 09:14 | 39.55132 | 2.73784 | 31 ft | 2 kts | 161° |
| 2026-05-01 09:15 | 39.55101 | 2.73804 | 32 ft | 8 kts | 151° |
| 2026-05-01 09:15 | 39.55036 | 2.73851 | 33 ft | 10 kts | 149° |
| 2026-05-01 09:15 | 39.54999 | 2.73868 | 33 ft | 1 kts | 185° |
| 2026-05-01 09:15 | 39.54990 | 2.73865 | 33 ft | 1 kts | 206° |
| 2026-05-01 09:16 | 39.54987 | 2.73862 | 33 ft | 1 kts | 231° |
| 2026-05-01 09:16 | 39.54978 | 2.73843 | 32 ft | 5 kts | 239° |
| 2026-05-01 09:16 | 39.54958 | 2.73799 | 34 ft | 1 kts | 240° |
| 2026-05-01 09:17 | 39.54952 | 2.73786 | 34 ft | 0 kts | 238° |